JAL435 RJTT-RJOM
Flight info
| Callsign | JAL435 |
|---|---|
| Flight time | 1h 10m |
| Altitude | 30000 |
| Route | NINOX Y28 BAMBO Y283 ITUKI |
| Aircraft | B738/M-SDGIJ1LRWY/SB1 |
Departure
| Time | 2026-04-30 05:27 |
|---|---|
| Airport | Tokyo Haneda International Airport (RJTT) |
Arrival
| Time | 2026-04-30 06:37 |
|---|---|
| Airport | Matsuyama Airport (RJOM) |
| Time | Latitude | Longitude | Altitude | Speed | Heading |
|---|---|---|---|---|---|
| 2026-04-30 05:12 | 35.54479 | 139.78577 | 28 ft | 0 kts | 332° |
| 2026-04-30 05:12 | 35.54474 | 139.78580 | 28 ft | 2 kts | 332° |
| 2026-04-30 05:12 | 35.54460 | 139.78589 | 28 ft | 2 kts | 332° |
| 2026-04-30 05:12 | 35.54446 | 139.78598 | 28 ft | 2 kts | 332° |
| 2026-04-30 05:13 | 35.54432 | 139.78606 | 28 ft | 2 kts | 332° |
| 2026-04-30 05:13 | 35.54419 | 139.78615 | 28 ft | 2 kts | 332° |
| 2026-04-30 05:13 | 35.54405 | 139.78624 | 28 ft | 2 kts | 332° |
| 2026-04-30 05:13 | 35.54391 | 139.78633 | 28 ft | 2 kts | 332° |
| 2026-04-30 05:14 | 35.54377 | 139.78642 | 28 ft | 1 kts | 332° |
| 2026-04-30 05:14 | 35.54368 | 139.78648 | 28 ft | 2 kts | 322° |
| 2026-04-30 05:14 | 35.54359 | 139.78664 | 28 ft | 2 kts | 290° |
| 2026-04-30 05:14 | 35.54356 | 139.78683 | 28 ft | 2 kts | 264° |
| 2026-04-30 05:15 | 35.54359 | 139.78697 | 28 ft | 0 kts | 243° |
| 2026-04-30 05:15 | 35.54363 | 139.78705 | 28 ft | 1 kts | 239° |
| 2026-04-30 05:17 | 35.54351 | 139.78680 | 28 ft | 6 kts | 240° |
| 2026-04-30 05:17 | 35.54316 | 139.78604 | 28 ft | 12 kts | 240° |
| 2026-04-30 05:17 | 35.54271 | 139.78510 | 28 ft | 10 kts | 239° |
| 2026-04-30 05:18 | 35.54227 | 139.78445 | 28 ft | 9 kts | 203° |
| 2026-04-30 05:18 | 35.54158 | 139.78467 | 28 ft | 12 kts | 151° |
| 2026-04-30 05:18 | 35.54037 | 139.78552 | 28 ft | 25 kts | 151° |
| 2026-04-30 05:18 | 35.53858 | 139.78679 | 28 ft | 27 kts | 150° |
| 2026-04-30 05:19 | 35.53699 | 139.78812 | 28 ft | 26 kts | 140° |
| 2026-04-30 05:19 | 35.53552 | 139.78966 | 28 ft | 25 kts | 140° |
| 2026-04-30 05:19 | 35.53424 | 139.79099 | 28 ft | 14 kts | 139° |
| 2026-04-30 05:19 | 35.53372 | 139.79211 | 28 ft | 14 kts | 98° |
| 2026-04-30 05:20 | 35.53404 | 139.79321 | 28 ft | 13 kts | 61° |
| 2026-04-30 05:20 | 35.53466 | 139.79450 | 28 ft | 19 kts | 60° |
| 2026-04-30 05:20 | 35.53548 | 139.79625 | 28 ft | 23 kts | 59° |
| 2026-04-30 05:20 | 35.53633 | 139.79803 | 28 ft | 22 kts | 59° |
| 2026-04-30 05:21 | 35.53699 | 139.79944 | 28 ft | 10 kts | 60° |
| 2026-04-30 05:21 | 35.53696 | 139.80029 | 28 ft | 9 kts | 135° |
| 2026-04-30 05:21 | 35.53634 | 139.80077 | 28 ft | 11 kts | 149° |
| 2026-04-30 05:21 | 35.53532 | 139.80150 | 28 ft | 21 kts | 150° |
| 2026-04-30 05:22 | 35.53366 | 139.80267 | 28 ft | 28 kts | 151° |
| 2026-04-30 05:22 | 35.53183 | 139.80397 | 28 ft | 27 kts | 150° |
| 2026-04-30 05:22 | 35.53037 | 139.80501 | 28 ft | 9 kts | 149° |
| 2026-04-30 05:22 | 35.52974 | 139.80525 | 28 ft | 8 kts | 185° |
| 2026-04-30 05:23 | 35.52922 | 139.80482 | 28 ft | 8 kts | 223° |
| 2026-04-30 05:23 | 35.52878 | 139.80432 | 28 ft | 7 kts | 223° |
| 2026-04-30 05:23 | 35.52836 | 139.80385 | 28 ft | 9 kts | 221° |
| 2026-04-30 05:23 | 35.52768 | 139.80310 | 28 ft | 14 kts | 222° |
| 2026-04-30 05:24 | 35.52689 | 139.80222 | 28 ft | 13 kts | 223° |
| 2026-04-30 05:24 | 35.52626 | 139.80151 | 28 ft | 8 kts | 213° |
| 2026-04-30 05:24 | 35.52568 | 139.80151 | 28 ft | 8 kts | 150° |
| 2026-04-30 05:24 | 35.52528 | 139.80199 | 28 ft | 7 kts | 133° |
| 2026-04-30 05:25 | 35.52492 | 139.80247 | 28 ft | 6 kts | 132° |
| 2026-04-30 05:25 | 35.52459 | 139.80292 | 28 ft | 8 kts | 130° |
| 2026-04-30 05:25 | 35.52443 | 139.80377 | 28 ft | 9 kts | 74° |
| 2026-04-30 05:25 | 35.52486 | 139.80443 | 28 ft | 9 kts | 43° |
| 2026-04-30 05:26 | 35.52575 | 139.80542 | 28 ft | 33 kts | 43° |
| 2026-04-30 05:26 | 35.52980 | 139.80997 | 28 ft | 108 kts | 42° |
| 2026-04-30 05:26 | 35.53696 | 139.81796 | 30 ft | 163 kts | 41° |
| 2026-04-30 05:26 | 35.54630 | 139.82822 | 540 ft | 172 kts | 43° |
| 2026-04-30 05:27 | 35.55583 | 139.83853 | 1288 ft | 176 kts | 43° |
| 2026-04-30 05:27 | 35.56491 | 139.84972 | 1852 ft | 180 kts | 60° |
| 2026-04-30 05:27 | 35.56776 | 139.86500 | 2155 ft | 194 kts | 97° |
| 2026-04-30 05:27 | 35.56288 | 139.88303 | 2561 ft | 210 kts | 112° |
| 2026-04-30 05:28 | 35.55651 | 139.90181 | 2953 ft | 228 kts | 110° |
| 2026-04-30 05:28 | 35.54994 | 139.92149 | 3463 ft | 240 kts | 116° |
| 2026-04-30 05:28 | 35.53882 | 139.93811 | 3925 ft | 255 kts | 143° |
| 2026-04-30 05:28 | 35.52085 | 139.94676 | 4614 ft | 261 kts | 171° |
| 2026-04-30 05:29 | 35.50246 | 139.94664 | 5270 ft | 265 kts | 187° |
| 2026-04-30 05:29 | 35.48455 | 139.94209 | 5979 ft | 265 kts | 200° |
| 2026-04-30 05:29 | 35.46876 | 139.93083 | 6648 ft | 267 kts | 222° |
| 2026-04-30 05:29 | 35.45692 | 139.91338 | 7335 ft | 269 kts | 237° |
| 2026-04-30 05:30 | 35.44906 | 139.89269 | 7981 ft | 275 kts | 252° |
| 2026-04-30 05:30 | 35.44504 | 139.86948 | 8624 ft | 280 kts | 259° |
| 2026-04-30 05:30 | 35.44237 | 139.84580 | 9267 ft | 284 kts | 261° |
| 2026-04-30 05:30 | 35.43951 | 139.82030 | 9959 ft | 288 kts | 260° |
| 2026-04-30 05:31 | 35.43710 | 139.79375 | 10538 ft | 299 kts | 268° |
| 2026-04-30 05:31 | 35.43878 | 139.76680 | 11029 ft | 312 kts | 276° |
| 2026-04-30 05:31 | 35.44235 | 139.73981 | 11499 ft | 324 kts | 278° |
| 2026-04-30 05:31 | 35.44625 | 139.71050 | 11964 ft | 336 kts | 278° |
| 2026-04-30 05:32 | 35.44975 | 139.68060 | 12431 ft | 348 kts | 277° |
| 2026-04-30 05:32 | 35.45284 | 139.65085 | 13180 ft | 350 kts | 277° |
| 2026-04-30 05:32 | 35.45570 | 139.62143 | 13913 ft | 352 kts | 276° |
| 2026-04-30 05:32 | 35.45848 | 139.59189 | 14769 ft | 350 kts | 276° |
| 2026-04-30 05:33 | 35.46122 | 139.56247 | 15608 ft | 349 kts | 276° |
| 2026-04-30 05:33 | 35.46395 | 139.53308 | 16409 ft | 347 kts | 275° |
| 2026-04-30 05:33 | 35.46666 | 139.50389 | 17228 ft | 344 kts | 276° |
| 2026-04-30 05:33 | 35.46935 | 139.47487 | 17893 ft | 345 kts | 276° |
| 2026-04-30 05:34 | 35.47212 | 139.44562 | 18487 ft | 348 kts | 276° |
| 2026-04-30 05:34 | 35.47492 | 139.41579 | 19045 ft | 352 kts | 276° |
| 2026-04-30 05:34 | 35.47774 | 139.38551 | 19579 ft | 356 kts | 276° |
| 2026-04-30 05:34 | 35.48072 | 139.35385 | 20141 ft | 360 kts | 276° |
| 2026-04-30 05:35 | 35.48359 | 139.32332 | 20778 ft | 360 kts | 276° |
| 2026-04-30 05:35 | 35.48655 | 139.29163 | 21433 ft | 361 kts | 275° |
| 2026-04-30 05:35 | 35.48949 | 139.25998 | 22051 ft | 362 kts | 275° |
| 2026-04-30 05:35 | 35.49257 | 139.22621 | 22630 ft | 364 kts | 276° |
| 2026-04-30 05:36 | 35.49559 | 139.19305 | 23246 ft | 364 kts | 275° |
| 2026-04-30 05:36 | 35.49744 | 139.16147 | 23789 ft | 365 kts | 271° |
| 2026-04-30 05:36 | 35.49726 | 139.12805 | 24389 ft | 364 kts | 267° |
| 2026-04-30 05:36 | 35.49594 | 139.09415 | 24819 ft | 368 kts | 266° |
| 2026-04-30 05:37 | 35.49421 | 139.06024 | 25176 ft | 374 kts | 265° |
| 2026-04-30 05:37 | 35.49232 | 139.02585 | 25538 ft | 380 kts | 265° |
| 2026-04-30 05:37 | 35.49033 | 138.99019 | 26057 ft | 381 kts | 264° |
| 2026-04-30 05:37 | 35.48846 | 138.95488 | 26566 ft | 382 kts | 265° |
| 2026-04-30 05:38 | 35.48669 | 138.92049 | 27030 ft | 384 kts | 264° |
| 2026-04-30 05:38 | 35.48488 | 138.88506 | 27425 ft | 387 kts | 264° |
| 2026-04-30 05:38 | 35.48304 | 138.84895 | 27905 ft | 388 kts | 263° |
| 2026-04-30 05:38 | 35.48123 | 138.81360 | 28301 ft | 390 kts | 263° |
| 2026-04-30 05:39 | 35.47949 | 138.77989 | 28697 ft | 392 kts | 263° |
| 2026-04-30 05:39 | 35.47779 | 138.74683 | 29119 ft | 393 kts | 263° |
| 2026-04-30 05:39 | 35.47590 | 138.71097 | 29313 ft | 400 kts | 263° |
| 2026-04-30 05:39 | 35.47399 | 138.67433 | 29560 ft | 405 kts | 263° |
| 2026-04-30 05:40 | 35.47218 | 138.63957 | 29860 ft | 409 kts | 263° |
| 2026-04-30 05:40 | 35.47022 | 138.60217 | 30141 ft | 407 kts | 263° |
| 2026-04-30 05:40 | 35.46833 | 138.56560 | 30153 ft | 392 kts | 263° |
| 2026-04-30 05:40 | 35.46652 | 138.53075 | 30144 ft | 386 kts | 262° |
| 2026-04-30 05:41 | 35.46270 | 138.46019 | 30145 ft | 388 kts | 262° |
| 2026-04-30 05:41 | 35.45885 | 138.38892 | 30133 ft | 388 kts | 263° |
| 2026-04-30 05:42 | 35.45502 | 138.31923 | 30134 ft | 388 kts | 262° |
| 2026-04-30 05:42 | 35.45132 | 138.25211 | 30129 ft | 388 kts | 262° |
| 2026-04-30 05:43 | 35.44726 | 138.17946 | 30127 ft | 389 kts | 262° |
| 2026-04-30 05:43 | 35.44324 | 138.10847 | 30128 ft | 388 kts | 262° |
| 2026-04-30 05:44 | 35.43911 | 138.03592 | 30120 ft | 391 kts | 262° |
| 2026-04-30 05:44 | 35.43507 | 137.96539 | 30120 ft | 389 kts | 261° |
| 2026-04-30 05:45 | 35.43086 | 137.89264 | 30118 ft | 388 kts | 262° |
| 2026-04-30 05:45 | 35.42668 | 137.82170 | 30107 ft | 388 kts | 262° |
| 2026-04-30 05:46 | 35.42222 | 137.74994 | 30103 ft | 388 kts | 261° |
| 2026-04-30 05:46 | 35.41689 | 137.67883 | 30098 ft | 387 kts | 260° |
| 2026-04-30 05:47 | 35.41123 | 137.60681 | 30097 ft | 389 kts | 260° |
| 2026-04-30 05:47 | 35.40265 | 137.53674 | 30097 ft | 386 kts | 254° |
| 2026-04-30 05:48 | 35.38826 | 137.46876 | 30099 ft | 385 kts | 252° |
| 2026-04-30 05:48 | 35.37291 | 137.40091 | 30095 ft | 383 kts | 253° |
| 2026-04-30 05:49 | 35.35888 | 137.33832 | 30091 ft | 384 kts | 252° |
| 2026-04-30 05:49 | 35.34479 | 137.27470 | 30096 ft | 385 kts | 252° |
| 2026-04-30 05:50 | 35.33327 | 137.22252 | 30095 ft | 385 kts | 252° |
| 2026-04-30 05:50 | 35.31944 | 137.15971 | 30101 ft | 385 kts | 252° |
| 2026-04-30 05:51 | 35.30555 | 137.09653 | 30093 ft | 383 kts | 252° |
| 2026-04-30 05:51 | 35.29147 | 137.03305 | 30087 ft | 387 kts | 252° |
| 2026-04-30 05:52 | 35.27736 | 136.96967 | 30090 ft | 387 kts | 252° |
| 2026-04-30 05:52 | 35.26325 | 136.90622 | 30089 ft | 388 kts | 252° |
| 2026-04-30 05:53 | 35.24896 | 136.84227 | 30084 ft | 387 kts | 252° |
| 2026-04-30 05:53 | 35.23471 | 136.77895 | 30086 ft | 386 kts | 251° |
| 2026-04-30 05:54 | 35.22033 | 136.71523 | 30088 ft | 388 kts | 252° |
| 2026-04-30 05:54 | 35.20596 | 136.65178 | 30078 ft | 385 kts | 252° |
| 2026-04-30 05:55 | 35.19130 | 136.58691 | 30076 ft | 388 kts | 252° |
| 2026-04-30 05:55 | 35.17698 | 136.52362 | 30061 ft | 387 kts | 252° |
| 2026-04-30 05:56 | 35.16261 | 136.46017 | 30051 ft | 387 kts | 252° |
| 2026-04-30 05:56 | 35.14828 | 136.39694 | 30059 ft | 387 kts | 252° |
| 2026-04-30 05:57 | 35.13399 | 136.33435 | 30051 ft | 388 kts | 252° |
| 2026-04-30 05:57 | 35.11950 | 136.27110 | 30054 ft | 386 kts | 251° |
| 2026-04-30 05:58 | 35.10495 | 136.20773 | 30053 ft | 389 kts | 252° |
| 2026-04-30 05:58 | 35.09059 | 136.14476 | 30054 ft | 388 kts | 251° |
| 2026-04-30 05:59 | 35.07611 | 136.08121 | 30050 ft | 388 kts | 251° |
| 2026-04-30 05:59 | 35.06156 | 136.01765 | 30048 ft | 389 kts | 252° |
| 2026-04-30 06:00 | 35.04704 | 135.95464 | 30050 ft | 387 kts | 251° |
| 2026-04-30 06:00 | 35.03239 | 135.89149 | 30043 ft | 387 kts | 251° |
| 2026-04-30 06:01 | 35.01769 | 135.82852 | 30044 ft | 388 kts | 251° |
| 2026-04-30 06:01 | 35.00462 | 135.76476 | 30044 ft | 391 kts | 254° |
| 2026-04-30 06:02 | 34.99291 | 135.70004 | 30044 ft | 391 kts | 254° |
| 2026-04-30 06:02 | 34.98137 | 135.63567 | 30051 ft | 387 kts | 253° |
| 2026-04-30 06:03 | 34.96976 | 135.57199 | 30060 ft | 387 kts | 253° |
| 2026-04-30 06:03 | 34.95781 | 135.50771 | 30062 ft | 385 kts | 253° |
| 2026-04-30 06:04 | 34.94582 | 135.44376 | 30058 ft | 389 kts | 253° |
| 2026-04-30 06:05 | 34.92771 | 135.34743 | 30061 ft | 388 kts | 252° |
| 2026-04-30 06:05 | 34.91539 | 135.28392 | 30057 ft | 386 kts | 252° |
| 2026-04-30 06:06 | 34.90276 | 135.22028 | 30055 ft | 384 kts | 252° |
| 2026-04-30 06:06 | 34.89033 | 135.15736 | 30050 ft | 387 kts | 252° |
| 2026-04-30 06:07 | 34.87774 | 135.09363 | 30045 ft | 389 kts | 252° |
| 2026-04-30 06:07 | 34.86512 | 135.02980 | 30034 ft | 389 kts | 252° |
| 2026-04-30 06:08 | 34.85257 | 134.96573 | 30027 ft | 390 kts | 252° |
| 2026-04-30 06:08 | 34.84067 | 134.90218 | 30025 ft | 386 kts | 253° |
| 2026-04-30 06:09 | 34.82881 | 134.83818 | 30008 ft | 390 kts | 253° |
| 2026-04-30 06:09 | 34.81698 | 134.77454 | 30021 ft | 387 kts | 252° |
| 2026-04-30 06:10 | 34.80506 | 134.71089 | 30014 ft | 386 kts | 253° |
| 2026-04-30 06:10 | 34.79322 | 134.64796 | 30014 ft | 386 kts | 253° |
| 2026-04-30 06:11 | 34.78106 | 134.58450 | 30014 ft | 385 kts | 252° |
| 2026-04-30 06:11 | 34.76872 | 134.52100 | 30012 ft | 386 kts | 252° |
| 2026-04-30 06:12 | 34.75642 | 134.45758 | 30005 ft | 385 kts | 252° |
| 2026-04-30 06:12 | 34.74433 | 134.39473 | 30003 ft | 384 kts | 252° |
| 2026-04-30 06:13 | 34.73310 | 134.33581 | 30004 ft | 385 kts | 252° |
| 2026-04-30 06:14 | 34.70984 | 134.21475 | 30000 ft | 384 kts | 252° |
| 2026-04-30 06:14 | 34.69773 | 134.15186 | 30003 ft | 380 kts | 252° |
| 2026-04-30 06:15 | 34.68560 | 134.08916 | 29996 ft | 382 kts | 252° |
| 2026-04-30 06:15 | 34.67357 | 134.02690 | 29996 ft | 384 kts | 251° |
| 2026-04-30 06:16 | 34.65789 | 133.96609 | 30002 ft | 376 kts | 246° |
| 2026-04-30 06:16 | 34.63926 | 133.90707 | 29997 ft | 379 kts | 245° |
| 2026-04-30 06:17 | 34.62019 | 133.84737 | 29994 ft | 378 kts | 246° |
| 2026-04-30 06:17 | 34.60142 | 133.78772 | 29995 ft | 381 kts | 246° |
| 2026-04-30 06:18 | 34.58263 | 133.72736 | 29989 ft | 381 kts | 246° |
| 2026-04-30 06:18 | 34.57337 | 133.69757 | 29822 ft | 378 kts | 246° |
| 2026-04-30 06:18 | 34.56416 | 133.66791 | 29380 ft | 372 kts | 246° |
| 2026-04-30 06:18 | 34.55516 | 133.63893 | 28802 ft | 369 kts | 247° |
| 2026-04-30 06:19 | 34.54612 | 133.60992 | 28083 ft | 371 kts | 246° |
| 2026-04-30 06:19 | 34.53679 | 133.58086 | 27417 ft | 369 kts | 246° |
| 2026-04-30 06:19 | 34.52734 | 133.55205 | 26819 ft | 367 kts | 246° |
| 2026-04-30 06:19 | 34.51783 | 133.52325 | 26185 ft | 365 kts | 246° |
| 2026-04-30 06:20 | 34.50844 | 133.49490 | 25547 ft | 364 kts | 246° |
| 2026-04-30 06:20 | 34.49917 | 133.46687 | 24914 ft | 363 kts | 247° |
| 2026-04-30 06:20 | 34.48983 | 133.43855 | 24270 ft | 361 kts | 247° |
| 2026-04-30 06:20 | 34.48059 | 133.41052 | 23651 ft | 360 kts | 247° |
| 2026-04-30 06:21 | 34.47139 | 133.38266 | 23023 ft | 359 kts | 248° |
| 2026-04-30 06:21 | 34.46232 | 133.35465 | 22398 ft | 359 kts | 248° |
| 2026-04-30 06:21 | 34.45425 | 133.32903 | 21825 ft | 359 kts | 248° |
| 2026-04-30 06:21 | 34.44555 | 133.30100 | 21191 ft | 359 kts | 248° |
| 2026-04-30 06:22 | 34.43686 | 133.27300 | 20558 ft | 360 kts | 249° |
| 2026-04-30 06:22 | 34.42796 | 133.24429 | 19893 ft | 360 kts | 249° |
| 2026-04-30 06:22 | 34.41912 | 133.21594 | 19232 ft | 361 kts | 249° |
| 2026-04-30 06:22 | 34.41031 | 133.18779 | 18584 ft | 361 kts | 249° |
| 2026-04-30 06:23 | 34.40140 | 133.15942 | 17906 ft | 361 kts | 249° |
| 2026-04-30 06:23 | 34.39247 | 133.13118 | 17245 ft | 361 kts | 249° |
| 2026-04-30 06:23 | 34.38351 | 133.10300 | 16597 ft | 361 kts | 249° |
| 2026-04-30 06:23 | 34.37459 | 133.07500 | 15940 ft | 361 kts | 249° |
| 2026-04-30 06:24 | 34.36549 | 133.04656 | 15278 ft | 361 kts | 249° |
| 2026-04-30 06:24 | 34.35650 | 133.01836 | 14621 ft | 360 kts | 249° |
| 2026-04-30 06:24 | 34.34747 | 132.99011 | 13981 ft | 359 kts | 248° |
| 2026-04-30 06:24 | 34.33860 | 132.96234 | 13358 ft | 358 kts | 248° |
| 2026-04-30 06:25 | 34.32951 | 132.93416 | 12725 ft | 357 kts | 247° |
| 2026-04-30 06:25 | 34.31848 | 132.90741 | 12071 ft | 355 kts | 236° |
| 2026-04-30 06:25 | 34.30205 | 132.88574 | 11431 ft | 352 kts | 217° |
| 2026-04-30 06:25 | 34.28043 | 132.87216 | 10952 ft | 346 kts | 199° |
| 2026-04-30 06:26 | 34.25772 | 132.86458 | 10670 ft | 334 kts | 195° |
| 2026-04-30 06:26 | 34.23565 | 132.85774 | 10533 ft | 318 kts | 195° |
| 2026-04-30 06:26 | 34.21497 | 132.85101 | 10400 ft | 304 kts | 196° |
| 2026-04-30 06:26 | 34.19498 | 132.84428 | 10226 ft | 285 kts | 196° |
| 2026-04-30 06:27 | 34.17669 | 132.83806 | 10050 ft | 267 kts | 195° |
| 2026-04-30 06:27 | 34.15925 | 132.83212 | 9730 ft | 257 kts | 195° |
| 2026-04-30 06:27 | 34.14264 | 132.82649 | 9357 ft | 256 kts | 194° |
| 2026-04-30 06:27 | 34.12554 | 132.82075 | 9033 ft | 253 kts | 194° |
| 2026-04-30 06:28 | 34.10876 | 132.81517 | 8709 ft | 250 kts | 194° |
| 2026-04-30 06:28 | 34.09213 | 132.80917 | 8401 ft | 248 kts | 198° |
| 2026-04-30 06:28 | 34.07723 | 132.79932 | 8080 ft | 250 kts | 220° |
| 2026-04-30 06:28 | 34.06749 | 132.78175 | 7761 ft | 255 kts | 249° |
| 2026-04-30 06:29 | 34.06406 | 132.76091 | 7465 ft | 260 kts | 261° |
| 2026-04-30 06:29 | 34.06143 | 132.73846 | 7086 ft | 274 kts | 256° |
| 2026-04-30 06:29 | 34.05821 | 132.71580 | 6715 ft | 274 kts | 257° |
| 2026-04-30 06:29 | 34.05450 | 132.69298 | 6363 ft | 273 kts | 256° |
| 2026-04-30 06:30 | 34.05077 | 132.67056 | 6010 ft | 273 kts | 256° |
| 2026-04-30 06:30 | 34.04718 | 132.64815 | 5642 ft | 273 kts | 256° |
| 2026-04-30 06:30 | 34.04351 | 132.62584 | 5286 ft | 271 kts | 253° |
| 2026-04-30 06:30 | 34.03784 | 132.60422 | 4950 ft | 269 kts | 245° |
| 2026-04-30 06:31 | 34.03057 | 132.58386 | 4717 ft | 262 kts | 243° |
| 2026-04-30 06:31 | 34.02307 | 132.56409 | 4491 ft | 256 kts | 243° |
| 2026-04-30 06:31 | 34.01523 | 132.54492 | 4272 ft | 250 kts | 236° |
| 2026-04-30 06:31 | 34.00446 | 132.52916 | 4031 ft | 240 kts | 212° |
| 2026-04-30 06:32 | 33.98943 | 132.52223 | 3771 ft | 227 kts | 179° |
| 2026-04-30 06:32 | 33.97427 | 132.52461 | 3544 ft | 216 kts | 159° |
| 2026-04-30 06:32 | 33.96031 | 132.53070 | 3313 ft | 211 kts | 156° |
| 2026-04-30 06:32 | 33.94687 | 132.53752 | 3091 ft | 205 kts | 148° |
| 2026-04-30 06:33 | 33.93582 | 132.54799 | 2884 ft | 197 kts | 130° |
| 2026-04-30 06:33 | 33.92709 | 132.56012 | 2766 ft | 187 kts | 127° |
| 2026-04-30 06:33 | 33.91890 | 132.57188 | 2579 ft | 180 kts | 127° |
| 2026-04-30 06:33 | 33.91089 | 132.58302 | 2339 ft | 167 kts | 127° |
| 2026-04-30 06:34 | 33.90346 | 132.59329 | 2132 ft | 153 kts | 125° |
| 2026-04-30 06:34 | 33.89682 | 132.60263 | 1901 ft | 149 kts | 124° |
| 2026-04-30 06:34 | 33.89003 | 132.61208 | 1664 ft | 151 kts | 125° |
| 2026-04-30 06:34 | 33.88311 | 132.62166 | 1524 ft | 152 kts | 125° |
| 2026-04-30 06:35 | 33.87619 | 132.63136 | 1318 ft | 149 kts | 125° |
| 2026-04-30 06:35 | 33.86923 | 132.64111 | 1100 ft | 154 kts | 126° |
| 2026-04-30 06:35 | 33.86237 | 132.65071 | 883 ft | 153 kts | 127° |
| 2026-04-30 06:35 | 33.85532 | 132.66052 | 673 ft | 156 kts | 127° |
| 2026-04-30 06:36 | 33.84813 | 132.67055 | 462 ft | 156 kts | 127° |
| 2026-04-30 06:36 | 33.84109 | 132.68042 | 258 ft | 158 kts | 128° |
| 2026-04-30 06:36 | 33.83387 | 132.69037 | 47 ft | 158 kts | 128° |
| 2026-04-30 06:36 | 33.82784 | 132.69884 | 22 ft | 89 kts | 131° |
| 2026-04-30 06:37 | 33.82565 | 132.70187 | 22 ft | 21 kts | 130° |
| 2026-04-30 06:37 | 33.82474 | 132.70316 | 22 ft | 20 kts | 130° |
| 2026-04-30 06:37 | 33.82385 | 132.70442 | 22 ft | 19 kts | 130° |
| 2026-04-30 06:37 | 33.82317 | 132.70540 | 22 ft | 9 kts | 119° |
| 2026-04-30 06:38 | 33.82321 | 132.70610 | 22 ft | 8 kts | 56° |
| 2026-04-30 06:38 | 33.82365 | 132.70659 | 22 ft | 8 kts | 39° |
| 2026-04-30 06:38 | 33.82421 | 132.70674 | 22 ft | 10 kts | 344° |
| 2026-04-30 06:38 | 33.82479 | 132.70615 | 22 ft | 10 kts | 312° |
| 2026-04-30 06:39 | 33.82542 | 132.70526 | 22 ft | 19 kts | 310° |
| 2026-04-30 06:39 | 33.82641 | 132.70387 | 22 ft | 21 kts | 310° |
| 2026-04-30 06:39 | 33.82713 | 132.70287 | 22 ft | 6 kts | 310° |
| 2026-04-30 06:39 | 33.82755 | 132.70281 | 22 ft | 6 kts | 45° |
| 2026-04-30 06:40 | 33.82789 | 132.70316 | 22 ft | 5 kts | 40° |
| 2026-04-30 06:40 | 33.82821 | 132.70349 | 22 ft | 5 kts | 41° |
| 2026-04-30 06:40 | 33.82834 | 132.70363 | 22 ft | 0 kts | 41° |
| 2026-04-30 06:40 | 33.82839 | 132.70367 | 22 ft | 0 kts | 41° |